sensor_id;sensor_type;location;lat;lon;timestamp;pressure;altitude;pressure_sealevel;temperature;humidity
60852;BME280;48553;50.766;2.900;2023-03-21T00:00:37;100921.44;;;9.51;87.67
60852;BME280;48553;50.766;2.900;2023-03-21T00:03:38;100920.16;;;9.48;87.95
60852;BME280;48553;50.766;2.900;2023-03-21T00:06:39;100917.09;;;9.50;87.74
60852;BME280;48553;50.766;2.900;2023-03-21T00:09:39;100910.34;;;9.47;88.11
60852;BME280;48553;50.766;2.900;2023-03-21T00:12:40;100905.66;;;9.48;88.01
60852;BME280;48553;50.766;2.900;2023-03-21T00:15:42;100901.00;;;9.48;87.91
60852;BME280;48553;50.766;2.900;2023-03-21T00:18:53;100904.03;;;9.47;87.77
60852;BME280;48553;50.766;2.900;2023-03-21T00:21:53;100897.94;;;9.50;88.03
60852;BME280;48553;50.766;2.900;2023-03-21T00:24:54;100886.53;;;9.48;87.90
60852;BME280;48553;50.766;2.900;2023-03-21T00:27:55;100884.09;;;9.46;87.95
60852;BME280;48553;50.766;2.900;2023-03-21T00:30:57;100874.94;;;9.42;88.17
60852;BME280;48553;50.766;2.900;2023-03-21T00:33:59;100884.09;;;9.46;87.98
60852;BME280;48553;50.766;2.900;2023-03-21T00:36:59;100877.66;;;9.42;88.01
60852;BME280;48553;50.766;2.900;2023-03-21T00:40:00;100877.34;;;9.44;87.87
60852;BME280;48553;50.766;2.900;2023-03-21T00:43:01;100864.47;;;9.44;87.80
60852;BME280;48553;50.766;2.900;2023-03-21T00:46:03;100860.47;;;9.41;87.93
60852;BME280;48553;50.766;2.900;2023-03-21T00:49:03;100868.34;;;9.43;87.83
60852;BME280;48553;50.766;2.900;2023-03-21T00:52:05;100863.69;;;9.44;87.98
60852;BME280;48553;50.766;2.900;2023-03-21T00:55:12;100856.25;;;9.44;87.90
60852;BME280;48553;50.766;2.900;2023-03-21T00:58:13;100855.47;;;9.44;87.93
60852;BME280;48553;50.766;2.900;2023-03-21T01:01:14;100842.94;;;9.43;87.92
60852;BME280;48553;50.766;2.900;2023-03-21T01:04:14;100843.25;;;9.41;87.80
60852;BME280;48553;50.766;2.900;2023-03-21T01:07:15;100840.50;;;9.41;88.01
60852;BME280;48553;50.766;2.900;2023-03-21T01:10:16;100827.94;;;9.40;88.16
60852;BME280;48553;50.766;2.900;2023-03-21T01:13:18;100834.25;;;9.40;87.94
60852;BME280;48553;50.766;2.900;2023-03-21T01:16:19;100826.84;;;9.41;87.98
60852;BME280;48553;50.766;2.900;2023-03-21T01:19:22;100815.91;;;9.41;87.92
60852;BME280;48553;50.766;2.900;2023-03-21T01:22:25;100818.94;;;9.39;88.07
60852;BME280;48553;50.766;2.900;2023-03-21T01:25:26;100804.47;;;9.39;88.09
60852;BME280;48553;50.766;2.900;2023-03-21T01:28:27;100806.53;;;9.42;87.88
60852;BME280;48553;50.766;2.900;2023-03-21T01:31:28;100805.75;;;9.41;88.08
60852;BME280;48553;50.766;2.900;2023-03-21T01:34:29;100800.47;;;9.36;88.10
60852;BME280;48553;50.766;2.900;2023-03-21T01:37:29;100798.84;;;9.35;88.10
60852;BME280;48553;50.766;2.900;2023-03-21T01:40:32;100795.78;;;9.37;88.02
60852;BME280;48553;50.766;2.900;2023-03-21T01:43:34;100799.97;;;9.34;88.04
60852;BME280;48553;50.766;2.900;2023-03-21T01:46:45;100791.78;;;9.34;88.26
60852;BME280;48553;50.766;2.900;2023-03-21T01:49:51;100796.09;;;9.35;87.91
60852;BME280;48553;50.766;2.900;2023-03-21T01:52:54;100788.25;;;9.34;88.09
60852;BME280;48553;50.766;2.900;2023-03-21T01:56:18;100781.31;;;9.36;88.00
60852;BME280;48553;50.766;2.900;2023-03-21T01:59:36;100779.84;;;9.39;87.73
60852;BME280;48553;50.766;2.900;2023-03-21T02:02:42;100785.03;;;9.32;87.86
60852;BME280;48553;50.766;2.900;2023-03-21T02:05:54;100778.41;;;9.33;87.93
60852;BME280;48553;50.766;2.900;2023-03-21T02:08:58;100785.16;;;9.35;87.83
60852;BME280;48553;50.766;2.900;2023-03-21T02:12:00;100780.84;;;9.34;87.95
60852;BME280;48553;50.766;2.900;2023-03-21T02:15:01;100776.97;;;9.35;87.96
60852;BME280;48553;50.766;2.900;2023-03-21T02:18:25;100776.16;;;9.35;88.03
60852;BME280;48553;50.766;2.900;2023-03-21T02:28:45;100760.09;;;9.33;88.16
60852;BME280;48553;50.766;2.900;2023-03-21T02:32:10;100763.63;;;9.34;88.06
60852;BME280;48553;50.766;2.900;2023-03-21T02:35:34;100750.59;;;9.31;88.18
60852;BME280;48553;50.766;2.900;2023-03-21T02:39:00;100749.47;;;9.32;88.25
60852;BME280;48553;50.766;2.900;2023-03-21T02:45:45;100744.97;;;9.36;88.30
60852;BME280;48553;50.766;2.900;2023-03-21T02:51:59;100751.22;;;9.36;88.24
60852;BME280;48553;50.766;2.900;2023-03-21T02:55:02;100749.47;;;9.32;88.63
60852;BME280;48553;50.766;2.900;2023-03-21T02:58:06;100742.72;;;9.38;88.38
60852;BME280;48553;50.766;2.900;2023-03-21T03:01:07;100734.03;;;9.36;88.77
60852;BME280;48553;50.766;2.900;2023-03-21T03:07:42;100732.09;;;9.36;88.85
60852;BME280;48553;50.766;2.900;2023-03-21T03:17:34;100739.00;;;9.34;89.38
60852;BME280;48553;50.766;2.900;2023-03-21T03:23:44;100732.75;;;9.33;89.66
60852;BME280;48553;50.766;2.900;2023-03-21T03:27:01;100726.28;;;9.38;89.53
60852;BME280;48553;50.766;2.900;2023-03-21T03:30:04;100727.72;;;9.35;89.56
60852;BME280;48553;50.766;2.900;2023-03-21T03:33:08;100719.88;;;9.34;89.67
60852;BME280;48553;50.766;2.900;2023-03-21T03:36:11;100728.88;;;9.34;89.93
60852;BME280;48553;50.766;2.900;2023-03-21T03:39:14;100722.25;;;9.35;89.60
60852;BME280;48553;50.766;2.900;2023-03-21T03:42:23;100722.59;;;9.34;89.56
60852;BME280;48553;50.766;2.900;2023-03-21T03:45:29;100708.56;;;9.35;89.67
60852;BME280;48553;50.766;2.900;2023-03-21T03:48:39;100713.91;;;9.32;89.63
60852;BME280;48553;50.766;2.900;2023-03-21T03:52:10;100705.25;;;9.30;89.81
60852;BME280;48553;50.766;2.900;2023-03-21T03:55:15;100685.94;;;9.26;89.85
60852;BME280;48553;50.766;2.900;2023-03-21T03:58:21;100687.22;;;9.29;89.77
60852;BME280;48553;50.766;2.900;2023-03-21T04:01:22;100683.69;;;9.28;89.70
60852;BME280;48553;50.766;2.900;2023-03-21T04:04:23;100688.34;;;9.28;90.04
60852;BME280;48553;50.766;2.900;2023-03-21T04:07:27;100684.81;;;9.27;89.86
60852;BME280;48553;50.766;2.900;2023-03-21T04:10:28;100674.19;;;9.26;90.08
60852;BME280;48553;50.766;2.900;2023-03-21T04:13:28;100675.47;;;9.28;89.42
60852;BME280;48553;50.766;2.900;2023-03-21T04:16:29;100675.47;;;9.28;89.95
60852;BME280;48553;50.766;2.900;2023-03-21T04:19:31;100681.75;;;9.29;90.07
60852;BME280;48553;50.766;2.900;2023-03-21T04:22:31;100671.47;;;9.26;90.10
60852;BME280;48553;50.766;2.900;2023-03-21T04:25:36;100674.53;;;9.24;90.02
60852;BME280;48553;50.766;2.900;2023-03-21T04:28:36;100670.34;;;9.27;89.95
60852;BME280;48553;50.766;2.900;2023-03-21T04:31:38;100667.94;;;9.25;89.75
60852;BME280;48553;50.766;2.900;2023-03-21T04:34:44;100667.94;;;9.25;90.21
60852;BME280;48553;50.766;2.900;2023-03-21T04:37:49;100656.22;;;9.25;90.09
60852;BME280;48553;50.766;2.900;2023-03-21T04:40:49;100657.13;;;9.29;89.86
60852;BME280;48553;50.766;2.900;2023-03-21T04:43:50;100657.00;;;9.25;90.00
60852;BME280;48553;50.766;2.900;2023-03-21T04:46:51;100662.47;;;9.25;90.07
60852;BME280;48553;50.766;2.900;2023-03-21T04:49:51;100673.09;;;9.27;90.23
60852;BME280;48553;50.766;2.900;2023-03-21T04:52:53;100662.78;;;9.24;90.21
60852;BME280;48553;50.766;2.900;2023-03-21T04:55:53;100655.38;;;9.24;90.41
60852;BME280;48553;50.766;2.900;2023-03-21T04:58:53;100651.22;;;9.27;90.33
60852;BME280;48553;50.766;2.900;2023-03-21T05:01:54;100655.84;;;9.26;90.25
60852;BME280;48553;50.766;2.900;2023-03-21T05:04:56;100658.47;;;9.23;90.82
60852;BME280;48553;50.766;2.900;2023-03-21T05:07:56;100644.78;;;9.23;91.03
60852;BME280;48553;50.766;2.900;2023-03-21T05:10:57;100654.25;;;9.25;90.47
60852;BME280;48553;50.766;2.900;2023-03-21T05:13:58;100636.25;;;9.24;90.81
60852;BME280;48553;50.766;2.900;2023-03-21T05:16:58;100642.53;;;9.25;90.90
60852;BME280;48553;50.766;2.900;2023-03-21T05:20:04;100648.47;;;9.27;90.45
60852;BME280;48553;50.766;2.900;2023-03-21T05:23:11;100648.47;;;9.27;90.88
60852;BME280;48553;50.766;2.900;2023-03-21T05:26:12;100635.13;;;9.25;91.00
60852;BME280;48553;50.766;2.900;2023-03-21T05:29:12;100637.84;;;9.25;90.89
60852;BME280;48553;50.766;2.900;2023-03-21T05:32:13;100635.44;;;9.24;90.82
60852;BME280;48553;50.766;2.900;2023-03-21T05:35:13;100641.72;;;9.24;90.96
60852;BME280;48553;50.766;2.900;2023-03-21T05:38:13;100624.50;;;9.24;90.95
60852;BME280;48553;50.766;2.900;2023-03-21T05:41:15;100620.50;;;9.21;91.11
60852;BME280;48553;50.766;2.900;2023-03-21T05:44:16;100634.50;;;9.19;91.40
60852;BME280;48553;50.766;2.900;2023-03-21T05:47:17;100643.66;;;9.24;91.09
60852;BME280;48553;50.766;2.900;2023-03-21T05:50:17;100639.97;;;9.19;91.30
60852;BME280;48553;50.766;2.900;2023-03-21T05:53:18;100639.16;;;9.19;91.37
60852;BME280;48553;50.766;2.900;2023-03-21T05:56:18;100638.84;;;9.20;91.27
60852;BME280;48553;50.766;2.900;2023-03-21T05:59:19;100638.53;;;9.22;91.19
60852;BME280;48553;50.766;2.900;2023-03-21T06:02:19;100641.72;;;9.24;91.12
60852;BME280;48553;50.766;2.900;2023-03-21T06:05:20;100642.69;;;9.19;91.32
60852;BME280;48553;50.766;2.900;2023-03-21T06:08:20;100639.97;;;9.19;91.42
60852;BME280;48553;50.766;2.900;2023-03-21T06:11:32;100642.69;;;9.19;91.33
60852;BME280;48553;50.766;2.900;2023-03-21T06:14:33;100639.16;;;9.19;91.21
60852;BME280;48553;50.766;2.900;2023-03-21T06:17:34;100637.69;;;9.22;91.09
60852;BME280;48553;50.766;2.900;2023-03-21T06:20:35;100645.44;;;9.19;91.38
60852;BME280;48553;50.766;2.900;2023-03-21T06:23:35;100642.06;;;9.23;91.05
60852;BME280;48553;50.766;2.900;2023-03-21T06:26:36;100640.78;;;9.20;91.11
60852;BME280;48553;50.766;2.900;2023-03-21T06:29:37;100640.78;;;9.20;91.33
60852;BME280;48553;50.766;2.900;2023-03-21T06:32:38;100629.03;;;9.19;91.35
60852;BME280;48553;50.766;2.900;2023-03-21T06:35:38;100634.97;;;9.22;91.18
60852;BME280;48553;50.766;2.900;2023-03-21T06:38:39;100631.44;;;9.21;91.28
60852;BME280;48553;50.766;2.900;2023-03-21T06:41:39;100629.50;;;9.22;91.26
60852;BME280;48553;50.766;2.900;2023-03-21T06:44:40;100631.91;;;9.23;91.46
60852;BME280;48553;50.766;2.900;2023-03-21T06:47:40;100622.56;;;9.24;91.54
60852;BME280;48553;50.766;2.900;2023-03-21T06:50:41;100618.56;;;9.22;91.86
60852;BME280;48553;50.766;2.900;2023-03-21T06:53:41;100616.66;;;9.22;91.74
60852;BME280;48553;50.766;2.900;2023-03-21T06:56:42;100610.50;;;9.25;91.62
60852;BME280;48553;50.766;2.900;2023-03-21T06:59:43;100612.56;;;9.28;91.49
60852;BME280;48553;50.766;2.900;2023-03-21T07:02:43;100611.78;;;9.28;91.76
60852;BME280;48553;50.766;2.900;2023-03-21T07:05:43;100609.84;;;9.28;91.73
60852;BME280;48553;50.766;2.900;2023-03-21T07:08:44;100614.66;;;9.31;91.52
60852;BME280;48553;50.766;2.900;2023-03-21T07:11:47;100613.22;;;9.34;91.51
60852;BME280;48553;50.766;2.900;2023-03-21T07:14:49;100616.25;;;9.32;91.84
60852;BME280;48553;50.766;2.900;2023-03-21T07:17:50;100613.22;;;9.34;91.53
60852;BME280;48553;50.766;2.900;2023-03-21T07:20:50;100610.78;;;9.32;91.83
60852;BME280;48553;50.766;2.900;2023-03-21T07:23:51;100611.75;;;9.36;91.63
60852;BME280;48553;50.766;2.900;2023-03-21T07:26:52;100608.22;;;9.36;91.68
60852;BME280;48553;50.766;2.900;2023-03-21T07:29:52;100596.13;;;9.37;91.72
60852;BME280;48553;50.766;2.900;2023-03-21T07:32:52;100609.00;;;9.36;91.93
60852;BME280;48553;50.766;2.900;2023-03-21T07:35:54;100602.84;;;9.39;91.44
60852;BME280;48553;50.766;2.900;2023-03-21T07:38:55;100588.88;;;9.41;91.48
60852;BME280;48553;50.766;2.900;2023-03-21T07:41:56;100593.19;;;9.42;91.78
60852;BME280;48553;50.766;2.900;2023-03-21T07:44:56;100591.72;;;9.45;91.58
60852;BME280;48553;50.766;2.900;2023-03-21T07:47:57;100595.75;;;9.47;91.33
60852;BME280;48553;50.766;2.900;2023-03-21T07:50:57;100589.81;;;9.45;91.63
60852;BME280;48553;50.766;2.900;2023-03-21T07:53:57;100571.94;;;9.48;91.30
60852;BME280;48553;50.766;2.900;2023-03-21T07:56:59;100578.97;;;9.49;91.76
60852;BME280;48553;50.766;2.900;2023-03-21T08:00:00;100551.63;;;9.49;91.55
60852;BME280;48553;50.766;2.900;2023-03-21T08:03:00;100576.72;;;9.51;91.23
60852;BME280;48553;50.766;2.900;2023-03-21T08:06:01;100561.78;;;9.48;91.62
60852;BME280;48553;50.766;2.900;2023-03-21T08:09:01;100561.09;;;9.51;91.57
60852;BME280;48553;50.766;2.900;2023-03-21T08:12:04;100577.19;;;9.53;91.53
60852;BME280;48553;50.766;2.900;2023-03-21T08:15:05;100568.66;;;9.54;91.03
60852;BME280;48553;50.766;2.900;2023-03-21T08:18:06;100561.94;;;9.52;91.55
60852;BME280;48553;50.766;2.900;2023-03-21T08:21:07;100569.78;;;9.53;91.25
60852;BME280;48553;50.766;2.900;2023-03-21T08:24:07;100573.66;;;9.52;91.49
60852;BME280;48553;50.766;2.900;2023-03-21T08:27:08;100574.13;;;9.54;91.14
60852;BME280;48553;50.766;2.900;2023-03-21T08:30:09;100581.19;;;9.55;91.20
60852;BME280;48553;50.766;2.900;2023-03-21T08:33:11;100583.94;;;9.55;91.35
60852;BME280;48553;50.766;2.900;2023-03-21T08:36:12;100582.47;;;9.58;91.37
60852;BME280;48553;50.766;2.900;2023-03-21T08:39:13;100587.59;;;9.59;91.05
60852;BME280;48553;50.766;2.900;2023-03-21T08:42:13;100593.88;;;9.60;91.20
60852;BME280;48553;50.766;2.900;2023-03-21T08:45:15;100587.75;;;9.63;90.58
60852;BME280;48553;50.766;2.900;2023-03-21T08:48:16;100578.88;;;9.66;90.88
60852;BME280;48553;50.766;2.900;2023-03-21T08:51:17;100572.72;;;9.69;90.55
60852;BME280;48553;50.766;2.900;2023-03-21T08:54:19;100576.72;;;9.72;90.78
60852;BME280;48553;50.766;2.900;2023-03-21T08:57:19;100594.44;;;9.74;90.61
60852;BME280;48553;50.766;2.900;2023-03-21T09:00:20;100602.75;;;9.78;90.30
60852;BME280;48553;50.766;2.900;2023-03-21T09:03:21;100607.56;;;9.81;90.37
60852;BME280;48553;50.766;2.900;2023-03-21T09:06:22;100620.13;;;9.82;90.23
60852;BME280;48553;50.766;2.900;2023-03-21T09:09:23;100618.66;;;9.85;90.16
60852;BME280;48553;50.766;2.900;2023-03-21T09:12:24;100601.91;;;9.86;90.27
60852;BME280;48553;50.766;2.900;2023-03-21T09:15:26;100593.34;;;9.88;90.22
60852;BME280;48553;50.766;2.900;2023-03-21T09:18:27;100607.03;;;9.88;90.33
60852;BME280;48553;50.766;2.900;2023-03-21T09:21:48;100595.88;;;9.93;90.10
60852;BME280;48553;50.766;2.900;2023-03-21T09:24:48;100602.75;;;9.99;90.15
60852;BME280;48553;50.766;2.900;2023-03-21T09:27:50;100609.63;;;10.05;89.88
60852;BME280;48553;50.766;2.900;2023-03-21T09:30:50;100614.88;;;10.10;89.67
60852;BME280;48553;50.766;2.900;2023-03-21T09:33:52;100612.28;;;10.14;89.51
60852;BME280;48553;50.766;2.900;2023-03-21T09:36:52;100610.81;;;10.16;89.14
60852;BME280;48553;50.766;2.900;2023-03-21T09:39:56;100605.94;;;10.22;89.51
60852;BME280;48553;50.766;2.900;2023-03-21T09:42:57;100600.31;;;10.39;89.87
60852;BME280;48553;50.766;2.900;2023-03-21T09:46:32;100609.19;;;10.70;89.23
60852;BME280;48553;50.766;2.900;2023-03-21T09:49:31;100603.38;;;10.96;88.87
60852;BME280;48553;50.766;2.900;2023-03-21T09:55:44;100602.81;;;11.02;89.57
60852;BME280;48553;50.766;2.900;2023-03-21T09:58:53;100603.72;;;10.94;89.70
60852;BME280;48553;50.766;2.900;2023-03-21T10:01:55;100611.03;;;10.90;89.37
60852;BME280;48553;50.766;2.900;2023-03-21T10:05:02;100613.31;;;10.88;89.51
60852;BME280;48553;50.766;2.900;2023-03-21T10:08:22;100608.16;;;10.86;88.65
60852;BME280;48553;50.766;2.900;2023-03-21T10:11:34;100620.72;;;10.87;89.36
60852;BME280;48553;50.766;2.900;2023-03-21T10:14:39;100607.47;;;10.90;89.30
60852;BME280;48553;50.766;2.900;2023-03-21T10:17:43;100601.78;;;10.95;89.14
60852;BME280;48553;50.766;2.900;2023-03-21T10:20:47;100605.22;;;11.04;88.96
60852;BME280;48553;50.766;2.900;2023-03-21T10:23:53;100613.09;;;11.18;88.84
60852;BME280;48553;50.766;2.900;2023-03-21T10:26:55;100603.47;;;11.24;88.77
60852;BME280;48553;50.766;2.900;2023-03-21T10:29:56;100616.88;;;11.25;89.04
60852;BME280;48553;50.766;2.900;2023-03-21T10:33:01;100608.31;;;11.27;88.88
60852;BME280;48553;50.766;2.900;2023-03-21T10:36:10;100604.84;;;11.30;89.27
60852;BME280;48553;50.766;2.900;2023-03-21T10:42:20;100598.13;;;11.27;89.46
60852;BME280;48553;50.766;2.900;2023-03-21T10:45:23;100615.75;;;11.26;89.12
60852;BME280;48553;50.766;2.900;2023-03-21T10:48:23;100617.31;;;11.27;88.80
60852;BME280;48553;50.766;2.900;2023-03-21T10:51:27;100622.81;;;11.27;88.72
60852;BME280;48553;50.766;2.900;2023-03-21T10:54:33;100612.53;;;11.24;88.79
60852;BME280;48553;50.766;2.900;2023-03-21T10:57:34;100620.31;;;11.22;88.65
60852;BME280;48553;50.766;2.900;2023-03-21T11:00:39;100603.06;;;11.22;88.97
60852;BME280;48553;50.766;2.900;2023-03-21T11:03:44;100607.38;;;11.23;88.85
60852;BME280;48553;50.766;2.900;2023-03-21T11:06:54;100602.69;;;11.23;89.00
60852;BME280;48553;50.766;2.900;2023-03-21T11:10:00;100600.75;;;11.24;89.33
60852;BME280;48553;50.766;2.900;2023-03-21T11:13:07;100610.13;;;11.23;89.39
60852;BME280;48553;50.766;2.900;2023-03-21T11:16:18;100609.66;;;11.21;90.33
60852;BME280;48553;50.766;2.900;2023-03-21T11:19:32;100611.16;;;11.18;90.57
60852;BME280;48553;50.766;2.900;2023-03-21T11:22:41;100611.84;;;11.15;91.54
60852;BME280;48553;50.766;2.900;2023-03-21T11:25:43;100619.25;;;11.15;91.78
60852;BME280;48553;50.766;2.900;2023-03-21T11:28:46;100618.38;;;11.11;91.77
60852;BME280;48553;50.766;2.900;2023-03-21T11:31:47;100614.81;;;11.10;90.38
60852;BME280;48553;50.766;2.900;2023-03-21T11:34:50;100613.53;;;11.07;90.36
60852;BME280;48553;50.766;2.900;2023-03-21T11:37:54;100599.38;;;11.05;90.92
60852;BME280;48553;50.766;2.900;2023-03-21T11:40:59;100603.72;;;11.06;90.76
60852;BME280;48553;50.766;2.900;2023-03-21T11:44:01;100614.25;;;11.04;90.99
60852;BME280;48553;50.766;2.900;2023-03-21T11:47:02;100610.34;;;11.05;89.80
60852;BME280;48553;50.766;2.900;2023-03-21T11:50:13;100601.31;;;11.05;90.77
60852;BME280;48553;50.766;2.900;2023-03-21T11:53:25;100595.97;;;11.08;91.07
60852;BME280;48553;50.766;2.900;2023-03-21T11:56:44;100585.88;;;11.13;90.67
60852;BME280;48553;50.766;2.900;2023-03-21T12:02:54;100584.97;;;11.21;91.64
60852;BME280;48553;50.766;2.900;2023-03-21T12:06:04;100578.78;;;11.24;91.27
60852;BME280;48553;50.766;2.900;2023-03-21T12:09:28;100589.56;;;11.29;91.86
60852;BME280;48553;50.766;2.900;2023-03-21T12:22:43;100572.41;;;11.32;92.12
60852;BME280;48553;50.766;2.900;2023-03-21T12:39:38;100545.84;;;11.48;91.70
60852;BME280;48553;50.766;2.900;2023-03-21T12:45:44;100547.06;;;11.51;91.58
60852;BME280;48553;50.766;2.900;2023-03-21T12:51:54;100538.63;;;11.56;91.58
60852;BME280;48553;50.766;2.900;2023-03-21T12:55:13;100548.09;;;11.59;91.47
60852;BME280;48553;50.766;2.900;2023-03-21T12:58:19;100530.13;;;11.61;91.63
60852;BME280;48553;50.766;2.900;2023-03-21T13:01:23;100535.38;;;11.66;91.59
60852;BME280;48553;50.766;2.900;2023-03-21T13:04:41;100537.78;;;11.68;91.65
60852;BME280;48553;50.766;2.900;2023-03-21T13:07:47;100547.59;;;11.69;91.59
60852;BME280;48553;50.766;2.900;2023-03-21T13:10:49;100536.47;;;11.78;90.60
60852;BME280;48553;50.766;2.900;2023-03-21T13:13:57;100542.75;;;11.90;91.14
60852;BME280;48553;50.766;2.900;2023-03-21T13:17:05;100521.63;;;12.07;90.57
60852;BME280;48553;50.766;2.900;2023-03-21T13:20:24;100510.63;;;12.07;91.03
60852;BME280;48553;50.766;2.900;2023-03-21T13:23:36;100521.28;;;12.08;90.76
60852;BME280;48553;50.766;2.900;2023-03-21T13:26:44;100511.16;;;12.12;90.37
60852;BME280;48553;50.766;2.900;2023-03-21T13:29:51;100504.53;;;12.14;90.22
60852;BME280;48553;50.766;2.900;2023-03-21T13:33:06;100500.00;;;12.21;89.87
60852;BME280;48553;50.766;2.900;2023-03-21T13:36:07;100501.53;;;12.19;89.82
60852;BME280;48553;50.766;2.900;2023-03-21T13:39:19;100502.53;;;12.42;89.44
60852;BME280;48553;50.766;2.900;2023-03-21T13:42:24;100498.50;;;12.71;88.50
60852;BME280;48553;50.766;2.900;2023-03-21T13:49:28;100493.41;;;13.05;88.17
60852;BME280;48553;50.766;2.900;2023-03-21T13:55:16;100493.69;;;13.00;87.28
60852;BME280;48553;50.766;2.900;2023-03-21T14:04:30;100494.53;;;12.69;88.46
60852;BME280;48553;50.766;2.900;2023-03-21T14:07:35;100492.16;;;12.67;87.64
60852;BME280;48553;50.766;2.900;2023-03-21T14:10:39;100485.38;;;12.65;87.01
60852;BME280;48553;50.766;2.900;2023-03-21T14:13:42;100470.06;;;12.64;87.13
60852;BME280;48553;50.766;2.900;2023-03-21T14:16:43;100482.63;;;12.65;87.24
60852;BME280;48553;50.766;2.900;2023-03-21T14:19:44;100482.72;;;12.68;86.84
60852;BME280;48553;50.766;2.900;2023-03-21T14:22:47;100474.38;;;12.65;86.84
60852;BME280;48553;50.766;2.900;2023-03-21T14:25:49;100471.22;;;12.63;86.33
60852;BME280;48553;50.766;2.900;2023-03-21T14:28:51;100464.91;;;12.62;86.45
60852;BME280;48553;50.766;2.900;2023-03-21T14:31:53;100480.25;;;12.63;86.15
60852;BME280;48553;50.766;2.900;2023-03-21T14:34:58;100472.34;;;12.62;85.78
60852;BME280;48553;50.766;2.900;2023-03-21T14:38:03;100470.34;;;12.59;85.71
60852;BME280;48553;50.766;2.900;2023-03-21T14:41:05;100464.38;;;12.57;86.04
60852;BME280;48553;50.766;2.900;2023-03-21T14:44:18;100459.69;;;12.57;85.54
60852;BME280;48553;50.766;2.900;2023-03-21T14:47:26;100465.13;;;12.53;85.88
60852;BME280;48553;50.766;2.900;2023-03-21T14:53:34;100459.16;;;12.51;85.45
60852;BME280;48553;50.766;2.900;2023-03-21T14:56:35;100451.38;;;12.53;85.51
60852;BME280;48553;50.766;2.900;2023-03-21T14:59:39;100450.56;;;12.53;85.76
60852;BME280;48553;50.766;2.900;2023-03-21T15:02:41;100456.50;;;12.55;85.81
60852;BME280;48553;50.766;2.900;2023-03-21T15:05:44;100443.47;;;12.52;85.94
60852;BME280;48553;50.766;2.900;2023-03-21T15:08:59;100442.31;;;12.53;85.53
60852;BME280;48553;50.766;2.900;2023-03-21T15:12:00;100444.25;;;12.52;86.28
60852;BME280;48553;50.766;2.900;2023-03-21T15:18:07;100440.97;;;12.63;86.13
60852;BME280;48553;50.766;2.900;2023-03-21T15:21:29;100448.06;;;12.64;86.14
60852;BME280;48553;50.766;2.900;2023-03-21T15:24:37;100449.63;;;12.65;85.71
60852;BME280;48553;50.766;2.900;2023-03-21T15:27:40;100446.53;;;12.66;86.01
60852;BME280;48553;50.766;2.900;2023-03-21T15:30:50;100454.44;;;12.68;85.70
60852;BME280;48553;50.766;2.900;2023-03-21T15:33:52;100448.94;;;12.68;85.44
60852;BME280;48553;50.766;2.900;2023-03-21T15:36:56;100452.84;;;12.67;85.33
60852;BME280;48553;50.766;2.900;2023-03-21T15:40:19;100443.44;;;12.68;85.30
60852;BME280;48553;50.766;2.900;2023-03-21T15:43:21;100447.78;;;12.69;84.90
60852;BME280;48553;50.766;2.900;2023-03-21T15:46:51;100450.91;;;12.67;85.52
60852;BME280;48553;50.766;2.900;2023-03-21T15:49:53;100448.94;;;12.68;85.53
60852;BME280;48553;50.766;2.900;2023-03-21T15:53:04;100449.63;;;12.65;85.66
60852;BME280;48553;50.766;2.900;2023-03-21T15:56:09;100452.38;;;12.65;85.83
60852;BME280;48553;50.766;2.900;2023-03-21T15:59:15;100464.09;;;12.62;85.89
60852;BME280;48553;50.766;2.900;2023-03-21T16:02:21;100462.78;;;12.56;86.28
60852;BME280;48553;50.766;2.900;2023-03-21T16:05:24;100464.28;;;12.53;85.92
60852;BME280;48553;50.766;2.900;2023-03-21T16:08:27;100462.38;;;12.53;86.01
60852;BME280;48553;50.766;2.900;2023-03-21T16:11:37;100464.22;;;12.49;86.41
60852;BME280;48553;50.766;2.900;2023-03-21T16:14:38;100472.72;;;12.44;86.77
60852;BME280;48553;50.766;2.900;2023-03-21T16:17:47;100471.84;;;12.40;86.99
60852;BME280;48553;50.766;2.900;2023-03-21T16:20:50;100465.81;;;12.35;87.14
60852;BME280;48553;50.766;2.900;2023-03-21T16:23:53;100455.97;;;12.33;86.62
60852;BME280;48553;50.766;2.900;2023-03-21T16:26:54;100462.63;;;12.32;86.51
60852;BME280;48553;50.766;2.900;2023-03-21T16:29:55;100462.63;;;12.32;86.51
60852;BME280;48553;50.766;2.900;2023-03-21T16:32:56;100458.72;;;12.33;86.78
60852;BME280;48553;50.766;2.900;2023-03-21T16:35:56;100457.13;;;12.32;86.54
60852;BME280;48553;50.766;2.900;2023-03-21T16:38:57;100445.34;;;12.32;86.46
60852;BME280;48553;50.766;2.900;2023-03-21T16:41:58;100455.09;;;12.29;86.25
60852;BME280;48553;50.766;2.900;2023-03-21T16:44:58;100460.13;;;12.27;86.16
60852;BME280;48553;50.766;2.900;2023-03-21T16:47:59;100461.31;;;12.26;86.72
60852;BME280;48553;50.766;2.900;2023-03-21T16:51:00;100459.25;;;12.23;86.07
60852;BME280;48553;50.766;2.900;2023-03-21T16:54:01;100458.34;;;12.19;86.17
60852;BME280;48553;50.766;2.900;2023-03-21T16:57:03;100455.53;;;12.16;85.65
60852;BME280;48553;50.766;2.900;2023-03-21T17:00:07;100450.72;;;12.12;85.71
60852;BME280;48553;50.766;2.900;2023-03-21T17:03:14;100454.19;;;12.09;85.33
60852;BME280;48553;50.766;2.900;2023-03-21T17:06:20;100451.78;;;12.08;85.63
60852;BME280;48553;50.766;2.900;2023-03-21T17:09:24;100455.34;;;12.08;85.84
60852;BME280;48553;50.766;2.900;2023-03-21T17:12:28;100447.81;;;12.05;85.40
60852;BME280;48553;50.766;2.900;2023-03-21T17:15:28;100448.84;;;12.01;84.70
60852;BME280;48553;50.766;2.900;2023-03-21T17:18:29;100450.03;;;12.00;84.91
60852;BME280;48553;50.766;2.900;2023-03-21T17:21:29;100456.91;;;11.94;84.15
60852;BME280;48553;50.766;2.900;2023-03-21T17:24:30;100463.19;;;11.94;83.99
60852;BME280;48553;50.766;2.900;2023-03-21T17:27:30;100458.44;;;11.91;83.18
60852;BME280;48553;50.766;2.900;2023-03-21T17:30:33;100462.97;;;11.87;82.52
60852;BME280;48553;50.766;2.900;2023-03-21T17:33:34;100459.78;;;11.85;82.74